createdAt,value
2022-08-07T00:00:36.616Z,8.82
2022-08-07T00:03:07.284Z,4.72
2022-08-07T00:05:36.321Z,8.63
2022-08-07T00:08:04.944Z,5.72
2022-08-07T00:10:32.159Z,6.60
2022-08-07T00:13:09.683Z,6.35
2022-08-07T00:15:51.195Z,7.72
2022-08-07T00:18:24.549Z,5.90
2022-08-07T00:21:01.677Z,6.15
2022-08-07T00:23:30.171Z,7.38
2022-08-07T00:26:00.134Z,6.97
2022-08-07T00:28:34.010Z,9.15
2022-08-07T00:31:06.303Z,8.23
2022-08-07T00:33:40.406Z,9.68
2022-08-07T00:36:08.274Z,7.95
2022-08-07T00:38:36.804Z,7.85
2022-08-07T00:41:09.993Z,7.68
2022-08-07T00:44:01.246Z,8.23
2022-08-07T00:46:27.951Z,9.70
2022-08-07T00:48:54.618Z,7.78
2022-08-07T00:51:21.908Z,8.40
2022-08-07T00:53:50.600Z,11.68
2022-08-07T00:56:23.626Z,7.28
2022-08-07T00:58:57.454Z,7.95
2022-08-07T01:01:24.351Z,7.45
2022-08-07T01:03:56.056Z,8.73
2022-08-07T01:06:27.577Z,7.35
2022-08-07T01:08:55.736Z,7.68
2022-08-07T01:12:09.828Z,9.00
2022-08-07T01:14:11.637Z,7.15
2022-08-07T01:16:38.590Z,8.10
2022-08-07T01:19:18.367Z,9.77
2022-08-07T01:21:47.833Z,7.43
2022-08-07T01:24:21.160Z,8.88
2022-08-07T01:26:51.982Z,7.22
2022-08-07T01:29:19.791Z,7.90
2022-08-07T01:31:48.611Z,8.13
2022-08-07T01:34:17.948Z,9.50
2022-08-07T01:36:52.479Z,10.55
2022-08-07T01:39:25.065Z,6.95
2022-08-07T01:42:38.916Z,7.50
2022-08-07T01:44:53.536Z,7.47
2022-08-07T01:48:19.604Z,7.15
2022-08-07T01:50:07.321Z,8.38
2022-08-07T01:52:34.726Z,9.10
2022-08-07T01:55:02.392Z,8.55
2022-08-07T01:58:01.515Z,8.10
2022-08-07T02:00:28.631Z,9.45
2022-08-07T02:03:18.280Z,8.57
2022-08-07T02:05:59.605Z,8.88
2022-08-07T02:08:27.205Z,7.80
2022-08-07T02:10:57.973Z,8.20
2022-08-07T02:13:56.456Z,7.70
2022-08-07T02:16:14.822Z,9.40
2022-08-07T02:18:45.305Z,7.53
2022-08-07T02:21:16.360Z,9.20
2022-08-07T02:23:43.878Z,8.80
2022-08-07T02:26:33.857Z,7.70
2022-08-07T02:28:58.592Z,8.98
2022-08-07T02:34:04.120Z,9.77
2022-08-07T02:36:38.505Z,8.32
2022-08-07T02:39:16.387Z,8.93
2022-08-07T02:41:50.657Z,8.70
2022-08-07T02:44:23.863Z,8.48
2022-08-07T02:46:55.062Z,12.60
2022-08-07T02:49:56.237Z,8.15
2022-08-07T02:52:13.026Z,7.82
2022-08-07T02:54:41.668Z,8.25
2022-08-07T02:57:13.453Z,7.63
2022-08-07T02:59:55.231Z,7.97
2022-08-07T03:02:28.293Z,9.20
2022-08-07T03:04:55.712Z,8.43
2022-08-07T03:07:43.270Z,8.75
2022-08-07T03:10:09.958Z,8.30
2022-08-07T03:12:41.185Z,7.75
2022-08-07T03:15:08.634Z,8.32
2022-08-07T03:17:54.013Z,8.95
2022-08-07T03:20:21.508Z,8.95
2022-08-07T03:22:50.344Z,7.30
2022-08-07T03:25:21.076Z,8.20
2022-08-07T03:28:08.762Z,8.68
2022-08-07T03:30:36.713Z,8.30
2022-08-07T03:33:04.618Z,9.38
2022-08-07T03:35:43.971Z,8.77
2022-08-07T03:38:17.513Z,9.27
2022-08-07T03:40:53.770Z,9.65
2022-08-07T03:43:20.669Z,10.00
2022-08-07T03:45:53.337Z,8.93
2022-08-07T03:48:20.058Z,7.75
2022-08-07T03:50:55.835Z,7.75
2022-08-07T03:53:30.244Z,9.20
2022-08-07T03:56:13.777Z,8.70
2022-08-07T04:01:29.346Z,10.68
2022-08-07T04:03:59.234Z,8.07
2022-08-07T04:06:37.119Z,7.75
2022-08-07T04:09:05.741Z,12.23
2022-08-07T04:12:25.181Z,7.55
2022-08-07T04:14:38.840Z,9.10
2022-08-07T04:17:21.212Z,7.10
2022-08-07T04:19:54.432Z,8.23
2022-08-07T04:22:27.550Z,7.93
2022-08-07T04:25:01.647Z,8.38
2022-08-07T04:27:28.708Z,9.95
2022-08-07T04:30:05.075Z,7.72
2022-08-07T04:32:40.167Z,9.00
2022-08-07T04:35:12.812Z,8.70
2022-08-07T04:37:52.760Z,6.90
2022-08-07T04:40:30.073Z,7.38
2022-08-07T04:43:02.017Z,8.73
2022-08-07T04:45:57.733Z,8.95
2022-08-07T04:49:01.650Z,7.97
2022-08-07T04:51:37.361Z,9.88
2022-08-07T04:54:36.776Z,10.80
2022-08-07T04:58:24.123Z,7.15
2022-08-07T05:00:12.594Z,8.30
2022-08-07T05:03:16.716Z,9.38
2022-08-07T05:05:58.912Z,7.43
2022-08-07T05:09:00.624Z,9.75
2022-08-07T05:11:57.437Z,8.02
2022-08-07T05:14:53.516Z,7.70
2022-08-07T05:18:00.599Z,8.30
2022-08-07T05:20:09.872Z,8.25
2022-08-07T05:22:38.478Z,8.07
2022-08-07T05:25:08.654Z,8.40
2022-08-07T05:28:02.602Z,9.75
2022-08-07T05:30:32.667Z,8.90
2022-08-07T05:33:02.564Z,12.02
2022-08-07T05:35:33.119Z,9.90
2022-08-07T05:38:08.882Z,9.20
2022-08-07T05:40:37.856Z,11.02
2022-08-07T05:43:18.671Z,10.95
2022-08-07T05:45:47.377Z,7.80
2022-08-07T05:48:15.348Z,10.98
2022-08-07T05:50:43.612Z,10.88
2022-08-07T05:54:13.996Z,10.35
2022-08-07T05:56:01.835Z,12.52
2022-08-07T05:58:36.902Z,10.93
2022-08-07T06:01:08.358Z,9.10
2022-08-07T06:03:56.780Z,8.88
2022-08-07T06:08:57.192Z,7.80
2022-08-07T06:14:11.921Z,8.50
2022-08-07T06:16:39.002Z,10.77
2022-08-07T06:19:06.526Z,10.88
2022-08-07T06:22:16.134Z,11.73
2022-08-07T06:24:46.283Z,10.05
2022-08-07T06:27:07.084Z,8.63
2022-08-07T06:29:34.989Z,9.93
2022-08-07T06:32:05.908Z,9.25
2022-08-07T06:34:32.627Z,10.10
2022-08-07T06:37:02.746Z,10.80
2022-08-07T06:40:13.719Z,9.18
2022-08-07T06:42:35.334Z,10.57
2022-08-07T06:45:03.506Z,8.82
2022-08-07T06:47:48.294Z,10.40
2022-08-07T06:50:19.018Z,8.88
2022-08-07T06:52:52.888Z,7.25
2022-08-07T06:55:32.992Z,7.82
2022-08-07T06:58:11.368Z,6.32
2022-08-07T07:00:42.299Z,8.05
2022-08-07T07:03:13.744Z,8.20
2022-08-07T07:06:05.378Z,6.38
2022-08-07T07:08:29.719Z,7.10
2022-08-07T07:10:57.997Z,6.82
2022-08-07T07:13:41.600Z,7.38
2022-08-07T07:16:22.550Z,6.55
2022-08-07T07:19:00.072Z,6.72
2022-08-07T07:22:12.086Z,6.72
2022-08-07T07:24:27.550Z,5.50
2022-08-07T07:26:57.052Z,6.43
2022-08-07T07:29:57.049Z,7.03
2022-08-07T07:32:15.010Z,7.50
2022-08-07T07:37:45.203Z,5.50
2022-08-07T07:40:14.935Z,6.50
2022-08-07T07:42:47.039Z,6.50
2022-08-07T07:45:19.785Z,6.95
2022-08-07T07:47:53.309Z,6.65
2022-08-07T07:50:33.944Z,5.00
2022-08-07T07:53:20.483Z,5.10
2022-08-07T07:55:57.847Z,5.68
2022-08-07T07:58:40.400Z,5.60
2022-08-07T08:02:01.930Z,4.85
2022-08-07T08:04:09.456Z,3.38
2022-08-07T08:06:39.614Z,4.07
2022-08-07T08:09:08.113Z,4.50
2022-08-07T08:11:59.409Z,5.70
2022-08-07T08:14:26.531Z,6.13
2022-08-07T08:16:54.571Z,4.38
2022-08-07T08:20:18.631Z,3.58
2022-08-07T08:22:33.045Z,5.45
2022-08-07T08:25:42.609Z,3.97
2022-08-07T08:28:11.092Z,3.75
2022-08-07T08:30:42.499Z,3.72
2022-08-07T08:33:16.315Z,3.58
2022-08-07T08:35:50.066Z,3.28
2022-08-07T08:38:19.758Z,4.18
2022-08-07T08:40:55.160Z,2.83
2022-08-07T08:43:59.328Z,3.30
2022-08-07T08:46:38.114Z,2.90
2022-08-07T08:49:33.452Z,7.22
2022-08-07T08:52:16.715Z,5.63
2022-08-07T08:54:52.749Z,3.33
2022-08-07T08:57:45.220Z,4.00
2022-08-07T09:00:13.164Z,3.33
2022-08-07T09:02:40.448Z,2.33
2022-08-07T09:05:55.181Z,3.05
2022-08-07T09:08:32.085Z,3.60
2022-08-07T09:11:24.171Z,3.60
2022-08-07T09:13:52.062Z,2.47
2022-08-07T09:16:40.893Z,2.38
2022-08-07T09:19:53.575Z,2.28
2022-08-07T09:24:33.626Z,1.95
2022-08-07T09:25:54.548Z,2.00
2022-08-07T09:30:05.651Z,2.05
2022-08-07T09:31:54.649Z,1.58
2022-08-07T09:34:27.217Z,1.70
2022-08-07T09:37:19.777Z,2.10
2022-08-07T09:39:57.973Z,2.58
2022-08-07T09:42:41.299Z,3.58
2022-08-07T09:47:49.911Z,1.55
2022-08-07T09:49:59.789Z,2.75
2022-08-07T09:52:15.670Z,2.72
2022-08-07T09:54:58.404Z,2.60
2022-08-07T09:57:53.236Z,2.13
2022-08-07T10:00:31.834Z,2.40
2022-08-07T10:04:06.115Z,2.75
2022-08-07T10:06:30.228Z,3.20
2022-08-07T10:09:34.143Z,2.28
2022-08-07T10:12:21.402Z,2.50
2022-08-07T10:15:18.640Z,2.35
2022-08-07T10:18:03.448Z,1.75
2022-08-07T10:20:52.204Z,2.08
2022-08-07T10:24:06.481Z,2.40
2022-08-07T10:26:24.734Z,1.88
2022-08-07T10:29:23.849Z,2.85
2022-08-07T10:31:53.214Z,2.42
2022-08-07T10:34:37.459Z,2.85
2022-08-07T10:37:19.147Z,1.80
2022-08-07T10:40:06.207Z,4.35
2022-08-07T10:42:40.616Z,2.42
2022-08-07T10:45:45.435Z,3.45
2022-08-07T10:48:39.148Z,2.35
2022-08-07T10:51:16.309Z,2.60
2022-08-07T10:54:06.645Z,3.20
2022-08-07T10:56:57.777Z,4.75
2022-08-07T10:59:47.256Z,3.13
2022-08-07T11:02:38.132Z,2.38
2022-08-07T11:05:35.786Z,3.60
2022-08-07T11:08:32.784Z,2.25
2022-08-07T11:11:06.283Z,2.22
2022-08-07T11:14:42.090Z,3.45
2022-08-07T11:17:02.211Z,2.55
2022-08-07T11:19:40.381Z,2.35
2022-08-07T11:22:32.409Z,5.35
2022-08-07T11:25:17.398Z,2.10
2022-08-07T11:28:03.035Z,2.15
2022-08-07T11:31:01.847Z,1.83
2022-08-07T11:33:59.434Z,3.33
2022-08-07T11:36:57.101Z,5.43
2022-08-07T11:40:01.313Z,3.92
2022-08-07T11:42:59.194Z,3.50
2022-08-07T11:45:36.045Z,2.33
2022-08-07T11:48:29.094Z,5.13
2022-08-07T11:51:44.887Z,2.22
2022-08-07T11:54:31.720Z,2.03
2022-08-07T11:57:57.865Z,2.78
2022-08-07T12:00:19.358Z,2.30
2022-08-07T12:02:55.481Z,4.13
2022-08-07T12:05:59.516Z,2.20
2022-08-07T12:08:40.500Z,3.90
2022-08-07T12:11:22.946Z,4.05
2022-08-07T12:13:55.633Z,4.45
2022-08-07T12:16:29.934Z,2.42
2022-08-07T12:19:24.180Z,2.58
2022-08-07T12:22:38.591Z,2.97
2022-08-07T12:26:00.191Z,2.00
2022-08-07T12:28:14.529Z,3.25
2022-08-07T12:30:46.710Z,2.35
2022-08-07T12:33:23.541Z,3.80
2022-08-07T12:35:58.941Z,3.95
2022-08-07T12:38:42.546Z,1.75
2022-08-07T12:41:11.735Z,5.85
2022-08-07T12:46:43.216Z,4.07
2022-08-07T12:49:40.112Z,3.50
2022-08-07T12:52:19.147Z,1.85
2022-08-07T12:55:03.801Z,2.58
2022-08-07T12:57:39.228Z,3.60
2022-08-07T13:00:50.916Z,3.33
2022-08-07T13:04:02.261Z,3.13
2022-08-07T13:07:02.281Z,2.63
2022-08-07T13:12:44.246Z,2.17
2022-08-07T13:15:33.341Z,2.42
2022-08-07T13:18:26.199Z,2.72
2022-08-07T13:21:15.020Z,1.27
2022-08-07T13:24:11.446Z,4.15
2022-08-07T13:26:56.377Z,2.47
2022-08-07T13:29:51.247Z,3.58
2022-08-07T13:32:37.409Z,4.00
2022-08-07T13:35:11.757Z,3.17
2022-08-07T13:37:55.312Z,2.28
2022-08-07T13:40:36.305Z,1.92
2022-08-07T13:43:12.360Z,2.05
2022-08-07T13:46:12.320Z,1.98
2022-08-07T13:48:34.681Z,1.67
2022-08-07T13:51:27.076Z,3.30
2022-08-07T13:54:00.657Z,2.88
2022-08-07T13:56:35.060Z,2.30
2022-08-07T13:59:33.391Z,3.03
2022-08-07T14:02:12.843Z,2.15
2022-08-07T14:04:54.678Z,3.63
2022-08-07T14:07:23.861Z,3.08
2022-08-07T14:10:17.403Z,3.97
2022-08-07T14:12:54.880Z,2.17
2022-08-07T14:15:24.814Z,2.55
2022-08-07T14:18:24.530Z,2.22
2022-08-07T14:20:49.307Z,1.80
2022-08-07T14:23:31.552Z,2.90
2022-08-07T14:26:30.470Z,2.53
2022-08-07T14:29:08.472Z,2.45
2022-08-07T14:31:57.850Z,3.17
2022-08-07T14:34:29.926Z,1.75
2022-08-07T14:37:03.104Z,2.90
2022-08-07T14:40:15.760Z,2.55
2022-08-07T14:42:31.502Z,2.45
2022-08-07T14:47:49.665Z,3.10
2022-08-07T14:50:19.886Z,3.95
2022-08-07T14:52:47.928Z,3.67
2022-08-07T14:55:17.674Z,2.90
2022-08-07T14:57:57.992Z,1.65
2022-08-07T15:00:31.295Z,1.92
2022-08-07T15:03:18.917Z,2.08
2022-08-07T15:05:55.205Z,1.83
2022-08-07T15:08:50.395Z,1.85
2022-08-07T15:11:53.270Z,1.88
2022-08-07T15:14:17.137Z,3.85
2022-08-07T15:16:55.108Z,3.17
2022-08-07T15:20:30.959Z,1.95
2022-08-07T15:22:23.191Z,1.90
2022-08-07T15:25:18.252Z,1.52
2022-08-07T15:28:31.030Z,2.75
2022-08-07T15:30:36.618Z,2.17
2022-08-07T15:36:01.160Z,2.58
2022-08-07T15:38:33.018Z,2.50
2022-08-07T15:44:09.414Z,2.20
2022-08-07T15:50:06.035Z,3.58
2022-08-07T15:52:30.438Z,2.40
2022-08-07T15:55:02.901Z,2.30
2022-08-07T15:57:40.120Z,3.10
2022-08-07T16:00:31.449Z,1.92
2022-08-07T16:03:03.721Z,34.85
2022-08-07T16:05:31.273Z,4.57
2022-08-07T16:08:32.328Z,3.65
2022-08-07T16:11:33.385Z,4.00
2022-08-07T16:14:17.134Z,2.65
2022-08-07T16:17:03.098Z,3.10
2022-08-07T16:19:59.698Z,2.83
2022-08-07T16:22:34.010Z,3.13
2022-08-07T16:25:22.794Z,3.20
2022-08-07T16:30:05.972Z,1.92
2022-08-07T16:31:51.394Z,3.88
2022-08-07T16:34:25.182Z,4.38
2022-08-07T16:38:06.071Z,1.95
2022-08-07T16:40:31.870Z,2.50
2022-08-07T16:46:40.659Z,5.70
2022-08-07T16:50:20.855Z,2.00
2022-08-07T16:52:51.003Z,2.97
2022-08-07T16:55:27.534Z,2.83
2022-08-07T16:59:02.241Z,2.67
2022-08-07T17:01:40.984Z,3.22
2022-08-07T17:04:58.048Z,2.08
2022-08-07T17:07:55.885Z,2.90
2022-08-07T17:10:54.691Z,2.58
2022-08-07T17:13:41.753Z,2.15
2022-08-07T17:16:26.056Z,2.33
2022-08-07T17:19:15.499Z,5.13
2022-08-07T17:21:51.321Z,3.38
2022-08-07T17:24:56.094Z,2.67
2022-08-07T17:28:06.630Z,1.90
2022-08-07T17:30:57.981Z,2.70
2022-08-07T17:34:10.311Z,2.10
2022-08-07T17:36:27.471Z,2.88
2022-08-07T17:39:10.183Z,3.45
2022-08-07T17:42:04.682Z,3.50
2022-08-07T17:44:45.524Z,4.15
2022-08-07T17:47:39.794Z,3.25
2022-08-07T17:50:42.593Z,2.20
2022-08-07T17:54:00.573Z,2.08
2022-08-07T17:56:28.662Z,2.97
2022-08-07T17:59:02.035Z,2.25
2022-08-07T18:01:58.145Z,2.53
2022-08-07T18:04:48.412Z,1.80
2022-08-07T18:07:34.408Z,2.55
2022-08-07T18:10:32.041Z,2.63
2022-08-07T18:12:59.831Z,2.53
2022-08-07T18:15:32.649Z,2.22
2022-08-07T18:18:46.614Z,3.55
2022-08-07T18:21:42.131Z,2.60
2022-08-07T18:24:09.002Z,2.28
2022-08-07T18:27:02.382Z,3.22
2022-08-07T18:30:05.282Z,2.38
2022-08-07T18:33:26.931Z,3.38
2022-08-07T18:35:59.613Z,2.20
2022-08-07T18:40:08.360Z,2.38
2022-08-07T18:41:58.142Z,2.33
2022-08-07T18:45:44.277Z,3.60
2022-08-07T18:47:48.513Z,2.47
2022-08-07T18:50:55.713Z,3.13
2022-08-07T18:53:55.945Z,2.13
2022-08-07T18:57:23.502Z,3.15
2022-08-07T19:00:34.138Z,2.22
2022-08-07T19:03:05.946Z,3.22
2022-08-07T19:06:04.029Z,3.22
2022-08-07T19:08:47.125Z,2.28
2022-08-07T19:11:36.378Z,2.30
2022-08-07T19:14:24.180Z,3.92
2022-08-07T19:17:05.644Z,4.10
2022-08-07T19:19:47.527Z,2.65
2022-08-07T19:22:30.859Z,2.80
2022-08-07T19:25:06.247Z,2.25
2022-08-07T19:28:29.402Z,2.45
2022-08-07T19:30:55.871Z,3.55
2022-08-07T19:33:15.083Z,2.15
2022-08-07T19:35:44.140Z,2.65
2022-08-07T19:38:16.826Z,2.60
2022-08-07T19:40:49.681Z,3.28
2022-08-07T19:43:50.172Z,3.85
2022-08-07T19:46:19.208Z,2.75
2022-08-07T19:48:55.355Z,2.42
2022-08-07T19:51:52.708Z,2.60
2022-08-07T19:54:32.522Z,4.05
2022-08-07T19:58:00.369Z,3.25
2022-08-07T19:59:54.249Z,4.47
2022-08-07T20:02:51.549Z,4.13
2022-08-07T20:05:25.039Z,2.78
2022-08-07T20:07:59.769Z,2.03
2022-08-07T20:10:36.797Z,3.80
2022-08-07T20:13:27.067Z,3.08
2022-08-07T20:16:01.861Z,2.95
2022-08-07T20:18:32.697Z,2.65
2022-08-07T20:21:02.287Z,2.90
2022-08-07T20:23:41.612Z,2.92
2022-08-07T20:26:13.073Z,3.38
2022-08-07T20:28:51.097Z,2.65
2022-08-07T20:31:21.410Z,2.75
2022-08-07T20:33:56.822Z,2.80
2022-08-07T20:36:28.203Z,2.40
2022-08-07T20:39:00.668Z,2.95
2022-08-07T20:41:34.075Z,4.53
2022-08-07T20:44:10.302Z,3.90
2022-08-07T20:46:44.238Z,3.03
2022-08-07T20:49:59.299Z,3.72
2022-08-07T20:52:00.589Z,3.67
2022-08-07T20:54:29.897Z,3.65
2022-08-07T20:57:01.805Z,2.42
2022-08-07T21:00:07.543Z,2.65
2022-08-07T21:02:40.241Z,2.92
2022-08-07T21:07:43.837Z,3.30
2022-08-07T21:10:29.835Z,3.92
2022-08-07T21:13:01.050Z,2.65
2022-08-07T21:15:47.478Z,2.42
2022-08-07T21:18:27.783Z,2.13
2022-08-07T21:20:56.595Z,4.55
2022-08-07T21:23:50.431Z,2.53
2022-08-07T21:26:54.753Z,4.30
2022-08-07T21:29:30.842Z,3.72
2022-08-07T21:32:47.368Z,3.13
2022-08-07T21:35:02.761Z,2.60
2022-08-07T21:37:58.893Z,4.03
2022-08-07T21:40:41.924Z,2.85
2022-08-07T21:43:23.456Z,2.50
2022-08-07T21:46:09.180Z,5.38
2022-08-07T21:48:56.572Z,2.80
2022-08-07T21:51:27.207Z,4.45
2022-08-07T21:54:11.369Z,4.35
2022-08-07T21:57:39.871Z,3.47
2022-08-07T22:00:22.213Z,2.75
2022-08-07T22:03:17.383Z,2.97
2022-08-07T22:06:30.392Z,3.33
2022-08-07T22:09:08.274Z,3.58
2022-08-07T22:12:05.086Z,3.75
2022-08-07T22:14:36.372Z,3.38
2022-08-07T22:17:04.332Z,3.30
2022-08-07T22:19:56.357Z,4.80
2022-08-07T22:22:32.135Z,5.50
2022-08-07T22:25:11.159Z,4.68
2022-08-07T22:28:29.957Z,5.00
2022-08-07T22:30:55.257Z,4.20
2022-08-07T22:33:52.766Z,5.22
2022-08-07T22:36:46.878Z,2.42
2022-08-07T22:39:23.836Z,6.40
2022-08-07T22:42:03.032Z,4.88
2022-08-07T22:44:58.737Z,3.78
2022-08-07T22:47:29.108Z,4.03
2022-08-07T22:50:08.427Z,3.60
2022-08-07T22:52:39.909Z,3.90
2022-08-07T22:55:34.022Z,4.40
2022-08-07T22:58:38.304Z,3.40
2022-08-07T23:01:06.191Z,3.35
2022-08-07T23:03:57.930Z,3.93
2022-08-07T23:06:34.886Z,6.05
2022-08-07T23:10:04.866Z,3.95
2022-08-07T23:12:21.085Z,6.03
2022-08-07T23:15:05.664Z,5.55
2022-08-07T23:17:49.063Z,5.50
2022-08-07T23:20:52.827Z,4.35
2022-08-07T23:24:07.068Z,4.43
2022-08-07T23:27:06.118Z,5.50
2022-08-07T23:30:35.990Z,5.93
2022-08-07T23:34:19.828Z,4.13
2022-08-07T23:35:27.554Z,5.10
2022-08-07T23:38:36.742Z,5.70
2022-08-07T23:41:18.486Z,6.93
2022-08-07T23:43:55.885Z,4.70
2022-08-07T23:46:46.694Z,4.88
2022-08-07T23:49:49.925Z,5.82
2022-08-07T23:52:57.951Z,4.75
2022-08-07T23:55:52.436Z,5.88
2022-08-07T23:58:21.313Z,4.60
